sensor_id;sensor_type;location;lat;lon;timestamp;temperature;humidity
64855;DHT22;51321;50.428;8.378;2023-02-01T00:00:30;4.40;99.90
64855;DHT22;51321;50.428;8.378;2023-02-01T00:03:12;4.50;99.90
64855;DHT22;51321;50.428;8.378;2023-02-01T00:05:57;4.60;99.90
64855;DHT22;51321;50.428;8.378;2023-02-01T00:08:39;4.50;99.90
64855;DHT22;51321;50.428;8.378;2023-02-01T00:11:20;4.60;99.90
64855;DHT22;51321;50.428;8.378;2023-02-01T00:14:01;4.60;99.90
64855;DHT22;51321;50.428;8.378;2023-02-01T00:16:42;4.70;99.90
64855;DHT22;51321;50.428;8.378;2023-02-01T00:19:22;4.70;99.90
64855;DHT22;51321;50.428;8.378;2023-02-01T00:22:03;4.70;99.90
64855;DHT22;51321;50.428;8.378;2023-02-01T00:24:45;4.70;99.90
64855;DHT22;51321;50.428;8.378;2023-02-01T00:27:26;4.70;99.90
64855;DHT22;51321;50.428;8.378;2023-02-01T00:30:08;4.80;99.90
64855;DHT22;51321;50.428;8.378;2023-02-01T00:32:49;4.80;99.90
64855;DHT22;51321;50.428;8.378;2023-02-01T00:35:29;4.80;99.90
64855;DHT22;51321;50.428;8.378;2023-02-01T00:38:10;4.80;99.90
64855;DHT22;51321;50.428;8.378;2023-02-01T00:40:52;4.80;99.90
64855;DHT22;51321;50.428;8.378;2023-02-01T00:43:32;4.80;99.90
64855;DHT22;51321;50.428;8.378;2023-02-01T00:46:15;4.80;99.90
64855;DHT22;51321;50.428;8.378;2023-02-01T00:48:56;4.90;99.90
64855;DHT22;51321;50.428;8.378;2023-02-01T00:51:36;4.90;99.90
64855;DHT22;51321;50.428;8.378;2023-02-01T00:54:17;5.00;99.90
64855;DHT22;51321;50.428;8.378;2023-02-01T00:56:59;5.00;99.90
64855;DHT22;51321;50.428;8.378;2023-02-01T00:59:40;4.90;99.90
64855;DHT22;51321;50.428;8.378;2023-02-01T01:02:21;4.90;99.90
64855;DHT22;51321;50.428;8.378;2023-02-01T01:05:01;5.00;99.90
64855;DHT22;51321;50.428;8.378;2023-02-01T01:07:42;5.00;99.90
64855;DHT22;51321;50.428;8.378;2023-02-01T01:10:22;5.10;99.90
64855;DHT22;51321;50.428;8.378;2023-02-01T01:13:05;5.20;99.90
64855;DHT22;51321;50.428;8.378;2023-02-01T01:15:45;5.20;99.90
64855;DHT22;51321;50.428;8.378;2023-02-01T01:18:26;5.20;99.90
64855;DHT22;51321;50.428;8.378;2023-02-01T01:21:08;5.20;99.90
64855;DHT22;51321;50.428;8.378;2023-02-01T01:23:50;5.10;99.90
64855;DHT22;51321;50.428;8.378;2023-02-01T01:26:30;5.20;99.90
64855;DHT22;51321;50.428;8.378;2023-02-01T01:29:12;5.20;99.90
64855;DHT22;51321;50.428;8.378;2023-02-01T01:31:53;5.20;99.90
64855;DHT22;51321;50.428;8.378;2023-02-01T01:34:34;5.10;99.90
64855;DHT22;51321;50.428;8.378;2023-02-01T01:37:15;5.20;99.90
64855;DHT22;51321;50.428;8.378;2023-02-01T01:39:56;5.20;99.90
64855;DHT22;51321;50.428;8.378;2023-02-01T01:42:38;5.20;99.90
64855;DHT22;51321;50.428;8.378;2023-02-01T01:45:25;5.30;99.90
64855;DHT22;51321;50.428;8.378;2023-02-01T01:48:08;5.30;99.90
64855;DHT22;51321;50.428;8.378;2023-02-01T01:50:55;5.40;99.90
64855;DHT22;51321;50.428;8.378;2023-02-01T01:53:41;5.40;99.90
64855;DHT22;51321;50.428;8.378;2023-02-01T01:56:23;5.30;99.90
64855;DHT22;51321;50.428;8.378;2023-02-01T01:59:05;5.30;99.90
64855;DHT22;51321;50.428;8.378;2023-02-01T02:01:47;5.30;99.90
64855;DHT22;51321;50.428;8.378;2023-02-01T02:04:28;5.30;99.90
64855;DHT22;51321;50.428;8.378;2023-02-01T02:07:11;5.30;99.90
64855;DHT22;51321;50.428;8.378;2023-02-01T02:09:53;5.40;99.90
64855;DHT22;51321;50.428;8.378;2023-02-01T02:12:34;5.30;99.90
64855;DHT22;51321;50.428;8.378;2023-02-01T02:15:16;5.20;99.90
64855;DHT22;51321;50.428;8.378;2023-02-01T02:18:03;5.30;99.90
64855;DHT22;51321;50.428;8.378;2023-02-01T02:21:17;5.20;99.90
64855;DHT22;51321;50.428;8.378;2023-02-01T02:27:22;5.10;99.90
64855;DHT22;51321;50.428;8.378;2023-02-01T02:30:49;5.10;99.90
64855;DHT22;51321;50.428;8.378;2023-02-01T02:34:05;5.20;99.90
64855;DHT22;51321;50.428;8.378;2023-02-01T02:36:57;5.20;99.90
64855;DHT22;51321;50.428;8.378;2023-02-01T02:39:47;5.20;99.90
64855;DHT22;51321;50.428;8.378;2023-02-01T02:42:32;5.20;99.90
64855;DHT22;51321;50.428;8.378;2023-02-01T02:45:40;5.30;99.90
64855;DHT22;51321;50.428;8.378;2023-02-01T02:48:44;5.30;99.90
64855;DHT22;51321;50.428;8.378;2023-02-01T02:51:32;5.30;99.90
64855;DHT22;51321;50.428;8.378;2023-02-01T02:54:36;5.30;99.90
64855;DHT22;51321;50.428;8.378;2023-02-01T02:57:30;5.40;99.90
64855;DHT22;51321;50.428;8.378;2023-02-01T03:00:32;5.40;99.90
64855;DHT22;51321;50.428;8.378;2023-02-01T03:03:31;5.40;99.90
64855;DHT22;51321;50.428;8.378;2023-02-01T03:06:36;5.40;99.90
64855;DHT22;51321;50.428;8.378;2023-02-01T03:09:21;5.40;99.90
64855;DHT22;51321;50.428;8.378;2023-02-01T03:12:09;5.30;99.90
64855;DHT22;51321;50.428;8.378;2023-02-01T03:15:14;5.30;99.90
64855;DHT22;51321;50.428;8.378;2023-02-01T03:17:58;5.30;99.90
64855;DHT22;51321;50.428;8.378;2023-02-01T03:20:43;5.40;99.90
64855;DHT22;51321;50.428;8.378;2023-02-01T03:23:29;5.30;99.90
64855;DHT22;51321;50.428;8.378;2023-02-01T03:26:13;5.30;99.90
64855;DHT22;51321;50.428;8.378;2023-02-01T03:28:59;5.30;99.90
64855;DHT22;51321;50.428;8.378;2023-02-01T03:31:45;5.20;99.90
64855;DHT22;51321;50.428;8.378;2023-02-01T03:34:26;5.20;99.90
64855;DHT22;51321;50.428;8.378;2023-02-01T03:37:10;5.30;99.90
64855;DHT22;51321;50.428;8.378;2023-02-01T03:39:59;5.20;99.90
64855;DHT22;51321;50.428;8.378;2023-02-01T03:42:47;5.20;99.90
64855;DHT22;51321;50.428;8.378;2023-02-01T03:45:33;5.20;99.90
64855;DHT22;51321;50.428;8.378;2023-02-01T03:48:16;5.10;99.90
64855;DHT22;51321;50.428;8.378;2023-02-01T03:51:00;5.10;99.90
64855;DHT22;51321;50.428;8.378;2023-02-01T03:53:43;5.10;99.90
64855;DHT22;51321;50.428;8.378;2023-02-01T03:56:29;5.10;99.90
64855;DHT22;51321;50.428;8.378;2023-02-01T03:59:11;5.10;99.90
64855;DHT22;51321;50.428;8.378;2023-02-01T04:01:53;5.00;99.90
64855;DHT22;51321;50.428;8.378;2023-02-01T04:04:34;5.10;99.90
64855;DHT22;51321;50.428;8.378;2023-02-01T04:07:15;5.00;99.90
64855;DHT22;51321;50.428;8.378;2023-02-01T04:09:56;5.00;99.90
64855;DHT22;51321;50.428;8.378;2023-02-01T04:12:38;5.00;99.90
64855;DHT22;51321;50.428;8.378;2023-02-01T04:15:19;5.10;99.90
64855;DHT22;51321;50.428;8.378;2023-02-01T04:18:00;5.10;99.90
64855;DHT22;51321;50.428;8.378;2023-02-01T04:20:42;5.10;99.90
64855;DHT22;51321;50.428;8.378;2023-02-01T04:23:23;5.10;99.90
64855;DHT22;51321;50.428;8.378;2023-02-01T04:26:04;5.10;99.90
64855;DHT22;51321;50.428;8.378;2023-02-01T04:28:47;5.00;99.90
64855;DHT22;51321;50.428;8.378;2023-02-01T04:31:27;5.10;99.90
64855;DHT22;51321;50.428;8.378;2023-02-01T04:34:08;5.20;99.90
64855;DHT22;51321;50.428;8.378;2023-02-01T04:36:51;5.20;99.90
64855;DHT22;51321;50.428;8.378;2023-02-01T04:39:31;5.20;99.90
64855;DHT22;51321;50.428;8.378;2023-02-01T04:42:13;5.20;99.90
64855;DHT22;51321;50.428;8.378;2023-02-01T04:44:55;5.30;99.90
64855;DHT22;51321;50.428;8.378;2023-02-01T04:47:36;5.20;99.90
64855;DHT22;51321;50.428;8.378;2023-02-01T04:50:17;5.20;99.90
64855;DHT22;51321;50.428;8.378;2023-02-01T04:52:57;5.20;99.90
64855;DHT22;51321;50.428;8.378;2023-02-01T04:55:38;5.20;99.90
64855;DHT22;51321;50.428;8.378;2023-02-01T04:58:19;5.30;99.90
64855;DHT22;51321;50.428;8.378;2023-02-01T05:01:04;5.30;99.90
64855;DHT22;51321;50.428;8.378;2023-02-01T05:03:46;5.40;99.90
64855;DHT22;51321;50.428;8.378;2023-02-01T05:06:26;5.40;99.90
64855;DHT22;51321;50.428;8.378;2023-02-01T05:09:07;5.40;99.90
64855;DHT22;51321;50.428;8.378;2023-02-01T05:11:48;5.30;99.90
64855;DHT22;51321;50.428;8.378;2023-02-01T05:14:46;5.30;99.90
64855;DHT22;51321;50.428;8.378;2023-02-01T05:17:29;5.30;99.90
64855;DHT22;51321;50.428;8.378;2023-02-01T05:20:11;5.30;99.90
64855;DHT22;51321;50.428;8.378;2023-02-01T05:22:52;5.30;99.90
64855;DHT22;51321;50.428;8.378;2023-02-01T05:25:32;5.40;99.90
64855;DHT22;51321;50.428;8.378;2023-02-01T05:28:13;5.20;99.90
64855;DHT22;51321;50.428;8.378;2023-02-01T05:30:54;5.10;99.90
64855;DHT22;51321;50.428;8.378;2023-02-01T05:33:36;5.00;99.90
64855;DHT22;51321;50.428;8.378;2023-02-01T05:36:17;5.00;99.90
64855;DHT22;51321;50.428;8.378;2023-02-01T05:38:58;4.90;99.90
64855;DHT22;51321;50.428;8.378;2023-02-01T05:41:39;4.90;99.90
64855;DHT22;51321;50.428;8.378;2023-02-01T05:44:20;4.90;99.90
64855;DHT22;51321;50.428;8.378;2023-02-01T05:47:00;4.90;99.90
64855;DHT22;51321;50.428;8.378;2023-02-01T05:49:42;5.00;99.90
64855;DHT22;51321;50.428;8.378;2023-02-01T05:52:23;5.00;99.90
64855;DHT22;51321;50.428;8.378;2023-02-01T05:55:07;5.00;99.90
64855;DHT22;51321;50.428;8.378;2023-02-01T05:57:47;5.00;99.90
64855;DHT22;51321;50.428;8.378;2023-02-01T06:00:29;5.10;99.90
64855;DHT22;51321;50.428;8.378;2023-02-01T06:03:09;5.10;99.90
64855;DHT22;51321;50.428;8.378;2023-02-01T06:05:53;5.00;99.90
64855;DHT22;51321;50.428;8.378;2023-02-01T06:08:34;4.90;99.90
64855;DHT22;51321;50.428;8.378;2023-02-01T06:11:15;4.80;99.90
64855;DHT22;51321;50.428;8.378;2023-02-01T06:13:55;4.70;99.90
64855;DHT22;51321;50.428;8.378;2023-02-01T06:16:36;4.60;99.90
64855;DHT22;51321;50.428;8.378;2023-02-01T06:19:17;4.60;99.90
64855;DHT22;51321;50.428;8.378;2023-02-01T06:21:59;4.60;99.90
64855;DHT22;51321;50.428;8.378;2023-02-01T06:24:40;4.60;99.90
64855;DHT22;51321;50.428;8.378;2023-02-01T06:27:21;4.50;99.90
64855;DHT22;51321;50.428;8.378;2023-02-01T06:30:03;4.30;99.90
64855;DHT22;51321;50.428;8.378;2023-02-01T06:32:49;4.30;99.90
64855;DHT22;51321;50.428;8.378;2023-02-01T06:35:33;4.30;99.90
64855;DHT22;51321;50.428;8.378;2023-02-01T06:38:15;4.30;99.90
64855;DHT22;51321;50.428;8.378;2023-02-01T06:40:58;4.30;99.90
64855;DHT22;51321;50.428;8.378;2023-02-01T06:43:40;4.30;99.90
64855;DHT22;51321;50.428;8.378;2023-02-01T06:46:21;4.40;99.90
64855;DHT22;51321;50.428;8.378;2023-02-01T06:49:02;4.40;99.90
64855;DHT22;51321;50.428;8.378;2023-02-01T06:51:43;4.50;99.90
64855;DHT22;51321;50.428;8.378;2023-02-01T06:54:25;4.50;99.90
64855;DHT22;51321;50.428;8.378;2023-02-01T06:57:06;4.50;99.90
64855;DHT22;51321;50.428;8.378;2023-02-01T06:59:46;4.50;99.90
64855;DHT22;51321;50.428;8.378;2023-02-01T07:02:27;4.60;99.90
64855;DHT22;51321;50.428;8.378;2023-02-01T07:05:09;4.80;99.90
64855;DHT22;51321;50.428;8.378;2023-02-01T07:07:52;4.80;99.90
64855;DHT22;51321;50.428;8.378;2023-02-01T07:10:35;4.90;99.90
64855;DHT22;51321;50.428;8.378;2023-02-01T07:13:16;4.80;99.90
64855;DHT22;51321;50.428;8.378;2023-02-01T07:15:58;4.90;99.90
64855;DHT22;51321;50.428;8.378;2023-02-01T07:18:39;4.90;99.90
64855;DHT22;51321;50.428;8.378;2023-02-01T07:21:20;5.10;99.90
64855;DHT22;51321;50.428;8.378;2023-02-01T07:24:01;5.10;99.90
64855;DHT22;51321;50.428;8.378;2023-02-01T07:26:44;5.10;99.90
64855;DHT22;51321;50.428;8.378;2023-02-01T07:29:27;5.10;99.90
64855;DHT22;51321;50.428;8.378;2023-02-01T07:32:07;5.10;99.90
64855;DHT22;51321;50.428;8.378;2023-02-01T07:34:48;5.10;99.90
64855;DHT22;51321;50.428;8.378;2023-02-01T07:37:31;5.10;99.90
64855;DHT22;51321;50.428;8.378;2023-02-01T07:40:11;5.10;99.90
64855;DHT22;51321;50.428;8.378;2023-02-01T07:42:53;5.10;99.90
64855;DHT22;51321;50.428;8.378;2023-02-01T07:45:36;5.10;99.90
64855;DHT22;51321;50.428;8.378;2023-02-01T07:48:17;5.10;99.90
64855;DHT22;51321;50.428;8.378;2023-02-01T07:51:01;5.20;99.90
64855;DHT22;51321;50.428;8.378;2023-02-01T07:53:43;5.20;99.90
64855;DHT22;51321;50.428;8.378;2023-02-01T07:56:23;5.20;99.90
64855;DHT22;51321;50.428;8.378;2023-02-01T07:59:06;5.20;99.90
64855;DHT22;51321;50.428;8.378;2023-02-01T08:01:47;5.20;99.90
64855;DHT22;51321;50.428;8.378;2023-02-01T08:04:28;5.20;99.90
64855;DHT22;51321;50.428;8.378;2023-02-01T08:07:09;5.30;99.90
64855;DHT22;51321;50.428;8.378;2023-02-01T08:09:50;5.20;99.90
64855;DHT22;51321;50.428;8.378;2023-02-01T08:12:30;5.20;99.90
64855;DHT22;51321;50.428;8.378;2023-02-01T08:15:13;5.30;99.90
64855;DHT22;51321;50.428;8.378;2023-02-01T08:17:54;5.30;99.90
64855;DHT22;51321;50.428;8.378;2023-02-01T08:20:36;5.40;99.90
64855;DHT22;51321;50.428;8.378;2023-02-01T08:23:18;5.40;99.90
64855;DHT22;51321;50.428;8.378;2023-02-01T08:26:07;5.40;99.90
64855;DHT22;51321;50.428;8.378;2023-02-01T08:28:50;5.40;99.90
64855;DHT22;51321;50.428;8.378;2023-02-01T08:31:33;5.50;99.90
64855;DHT22;51321;50.428;8.378;2023-02-01T08:34:14;5.50;99.90
64855;DHT22;51321;50.428;8.378;2023-02-01T08:36:55;5.50;99.90
64855;DHT22;51321;50.428;8.378;2023-02-01T08:39:38;5.50;99.90
64855;DHT22;51321;50.428;8.378;2023-02-01T08:42:22;5.50;99.90
64855;DHT22;51321;50.428;8.378;2023-02-01T08:45:22;5.50;99.90
64855;DHT22;51321;50.428;8.378;2023-02-01T08:48:06;5.60;99.90
64855;DHT22;51321;50.428;8.378;2023-02-01T08:50:46;5.60;99.90
64855;DHT22;51321;50.428;8.378;2023-02-01T08:53:27;5.60;99.90
64855;DHT22;51321;50.428;8.378;2023-02-01T08:56:09;5.60;99.90
64855;DHT22;51321;50.428;8.378;2023-02-01T08:58:50;5.60;99.90
64855;DHT22;51321;50.428;8.378;2023-02-01T09:01:32;5.60;99.90
64855;DHT22;51321;50.428;8.378;2023-02-01T09:04:14;5.60;99.90
64855;DHT22;51321;50.428;8.378;2023-02-01T09:06:54;5.60;99.90
64855;DHT22;51321;50.428;8.378;2023-02-01T09:09:37;5.70;99.90
64855;DHT22;51321;50.428;8.378;2023-02-01T09:12:18;5.60;99.90
64855;DHT22;51321;50.428;8.378;2023-02-01T09:14:59;5.60;99.90
64855;DHT22;51321;50.428;8.378;2023-02-01T09:17:40;5.60;99.90
64855;DHT22;51321;50.428;8.378;2023-02-01T09:20:24;5.60;99.90
64855;DHT22;51321;50.428;8.378;2023-02-01T09:23:04;5.60;99.90
64855;DHT22;51321;50.428;8.378;2023-02-01T09:25:46;5.60;99.90
64855;DHT22;51321;50.428;8.378;2023-02-01T09:28:29;5.70;99.90
64855;DHT22;51321;50.428;8.378;2023-02-01T09:31:10;5.70;99.90
64855;DHT22;51321;50.428;8.378;2023-02-01T09:33:51;5.70;99.90
64855;DHT22;51321;50.428;8.378;2023-02-01T09:36:33;5.70;99.90
64855;DHT22;51321;50.428;8.378;2023-02-01T09:39:14;5.70;99.90
64855;DHT22;51321;50.428;8.378;2023-02-01T09:42:00;5.70;99.90
64855;DHT22;51321;50.428;8.378;2023-02-01T09:44:52;5.70;99.90
64855;DHT22;51321;50.428;8.378;2023-02-01T09:47:36;5.80;99.90
64855;DHT22;51321;50.428;8.378;2023-02-01T09:50:26;5.80;99.90
64855;DHT22;51321;50.428;8.378;2023-02-01T09:53:17;5.80;99.90
64855;DHT22;51321;50.428;8.378;2023-02-01T09:56:04;5.80;99.90
64855;DHT22;51321;50.428;8.378;2023-02-01T09:58:49;5.80;99.90
64855;DHT22;51321;50.428;8.378;2023-02-01T10:01:35;5.90;99.90
64855;DHT22;51321;50.428;8.378;2023-02-01T10:04:18;6.00;99.90
64855;DHT22;51321;50.428;8.378;2023-02-01T10:07:20;5.90;99.90
64855;DHT22;51321;50.428;8.378;2023-02-01T10:10:10;5.90;99.90
64855;DHT22;51321;50.428;8.378;2023-02-01T10:13:09;5.90;99.90
64855;DHT22;51321;50.428;8.378;2023-02-01T10:16:02;6.00;99.90
64855;DHT22;51321;50.428;8.378;2023-02-01T10:18:58;6.00;99.90
64855;DHT22;51321;50.428;8.378;2023-02-01T10:21:51;6.10;99.90
64855;DHT22;51321;50.428;8.378;2023-02-01T10:24:44;6.10;99.90
64855;DHT22;51321;50.428;8.378;2023-02-01T10:27:33;6.10;99.90
64855;DHT22;51321;50.428;8.378;2023-02-01T10:30:19;6.10;99.90
64855;DHT22;51321;50.428;8.378;2023-02-01T10:33:12;6.10;99.90
64855;DHT22;51321;50.428;8.378;2023-02-01T10:35:59;6.00;99.90
64855;DHT22;51321;50.428;8.378;2023-02-01T10:38:42;6.00;99.90
64855;DHT22;51321;50.428;8.378;2023-02-01T10:41:27;6.10;99.90
64855;DHT22;51321;50.428;8.378;2023-02-01T10:44:14;6.10;99.90
64855;DHT22;51321;50.428;8.378;2023-02-01T10:46:55;6.10;99.90
64855;DHT22;51321;50.428;8.378;2023-02-01T10:49:39;6.20;99.90
64855;DHT22;51321;50.428;8.378;2023-02-01T10:52:29;6.20;99.90
64855;DHT22;51321;50.428;8.378;2023-02-01T10:55:32;6.30;99.90
64855;DHT22;51321;50.428;8.378;2023-02-01T10:58:16;6.30;99.90
64855;DHT22;51321;50.428;8.378;2023-02-01T11:01:00;6.30;99.90
64855;DHT22;51321;50.428;8.378;2023-02-01T11:03:44;6.40;99.90
64855;DHT22;51321;50.428;8.378;2023-02-01T11:06:28;6.40;99.90
64855;DHT22;51321;50.428;8.378;2023-02-01T11:09:14;6.40;99.90
64855;DHT22;51321;50.428;8.378;2023-02-01T11:11:58;6.40;99.90
64855;DHT22;51321;50.428;8.378;2023-02-01T11:14:40;6.40;99.90
64855;DHT22;51321;50.428;8.378;2023-02-01T11:17:25;6.40;99.90
64855;DHT22;51321;50.428;8.378;2023-02-01T11:20:13;6.40;99.90
64855;DHT22;51321;50.428;8.378;2023-02-01T11:22:55;6.30;99.90
64855;DHT22;51321;50.428;8.378;2023-02-01T11:25:37;6.30;99.90
64855;DHT22;51321;50.428;8.378;2023-02-01T11:28:18;6.40;99.90
64855;DHT22;51321;50.428;8.378;2023-02-01T11:31:03;6.40;99.90
64855;DHT22;51321;50.428;8.378;2023-02-01T11:33:49;6.40;99.90
64855;DHT22;51321;50.428;8.378;2023-02-01T11:36:32;6.50;99.90
64855;DHT22;51321;50.428;8.378;2023-02-01T11:39:23;6.40;99.90
64855;DHT22;51321;50.428;8.378;2023-02-01T11:42:11;6.40;99.90
64855;DHT22;51321;50.428;8.378;2023-02-01T11:45:17;6.50;99.90
64855;DHT22;51321;50.428;8.378;2023-02-01T11:47:58;6.40;99.90
64855;DHT22;51321;50.428;8.378;2023-02-01T11:50:46;6.50;99.90
64855;DHT22;51321;50.428;8.378;2023-02-01T11:53:55;6.60;99.90
64855;DHT22;51321;50.428;8.378;2023-02-01T11:56:48;6.60;99.90
64855;DHT22;51321;50.428;8.378;2023-02-01T11:59:59;6.70;99.90
64855;DHT22;51321;50.428;8.378;2023-02-01T12:03:18;6.80;99.90
64855;DHT22;51321;50.428;8.378;2023-02-01T12:06:09;6.90;99.90
64855;DHT22;51321;50.428;8.378;2023-02-01T12:09:09;7.00;99.90
64855;DHT22;51321;50.428;8.378;2023-02-01T12:12:00;7.00;99.90
64855;DHT22;51321;50.428;8.378;2023-02-01T12:14:58;7.10;99.90
64855;DHT22;51321;50.428;8.378;2023-02-01T12:17:57;7.10;99.90
64855;DHT22;51321;50.428;8.378;2023-02-01T12:21:12;7.30;99.90
64855;DHT22;51321;50.428;8.378;2023-02-01T12:27:38;7.30;99.90
64855;DHT22;51321;50.428;8.378;2023-02-01T12:30:52;7.20;99.90
64855;DHT22;51321;50.428;8.378;2023-02-01T12:33:43;7.10;99.90
64855;DHT22;51321;50.428;8.378;2023-02-01T12:36:35;7.00;99.90
64855;DHT22;51321;50.428;8.378;2023-02-01T12:39:23;7.00;99.90
64855;DHT22;51321;50.428;8.378;2023-02-01T12:42:11;7.00;99.90
64855;DHT22;51321;50.428;8.378;2023-02-01T12:44:59;7.10;99.90
64855;DHT22;51321;50.428;8.378;2023-02-01T12:47:47;7.00;99.90
64855;DHT22;51321;50.428;8.378;2023-02-01T12:50:35;7.10;99.90
64855;DHT22;51321;50.428;8.378;2023-02-01T12:53:24;7.10;99.90
64855;DHT22;51321;50.428;8.378;2023-02-01T12:56:09;7.10;99.90
64855;DHT22;51321;50.428;8.378;2023-02-01T12:58:53;7.20;99.90
64855;DHT22;51321;50.428;8.378;2023-02-01T13:01:37;7.20;99.90
64855;DHT22;51321;50.428;8.378;2023-02-01T13:04:26;7.20;99.90
64855;DHT22;51321;50.428;8.378;2023-02-01T13:07:12;7.20;99.90
64855;DHT22;51321;50.428;8.378;2023-02-01T13:09:59;7.20;99.90
64855;DHT22;51321;50.428;8.378;2023-02-01T13:12:47;7.20;99.90
64855;DHT22;51321;50.428;8.378;2023-02-01T13:15:31;7.30;99.90
64855;DHT22;51321;50.428;8.378;2023-02-01T13:18:20;7.20;99.90
64855;DHT22;51321;50.428;8.378;2023-02-01T13:21:05;7.10;99.90
64855;DHT22;51321;50.428;8.378;2023-02-01T13:23:48;7.10;99.90
64855;DHT22;51321;50.428;8.378;2023-02-01T13:26:30;7.10;99.90
64855;DHT22;51321;50.428;8.378;2023-02-01T13:29:11;7.20;99.90
64855;DHT22;51321;50.428;8.378;2023-02-01T13:32:14;7.30;99.90
64855;DHT22;51321;50.428;8.378;2023-02-01T13:41:56;7.40;99.90
64855;DHT22;51321;50.428;8.378;2023-02-01T13:44:40;7.40;99.90
64855;DHT22;51321;50.428;8.378;2023-02-01T13:47:26;7.40;99.90
64855;DHT22;51321;50.428;8.378;2023-02-01T13:50:13;7.40;99.90
64855;DHT22;51321;50.428;8.378;2023-02-01T13:53:01;7.40;99.90
64855;DHT22;51321;50.428;8.378;2023-02-01T13:55:45;7.40;99.90
64855;DHT22;51321;50.428;8.378;2023-02-01T13:58:33;7.50;99.90
64855;DHT22;51321;50.428;8.378;2023-02-01T14:01:44;7.50;99.90
64855;DHT22;51321;50.428;8.378;2023-02-01T14:04:47;7.50;99.90
64855;DHT22;51321;50.428;8.378;2023-02-01T14:07:28;7.50;99.90
64855;DHT22;51321;50.428;8.378;2023-02-01T14:10:46;7.50;99.90
64855;DHT22;51321;50.428;8.378;2023-02-01T14:13:31;7.50;99.90
64855;DHT22;51321;50.428;8.378;2023-02-01T14:16:14;7.50;99.90
64855;DHT22;51321;50.428;8.378;2023-02-01T14:19:00;7.70;99.90
64855;DHT22;51321;50.428;8.378;2023-02-01T14:21:48;7.60;99.90
64855;DHT22;51321;50.428;8.378;2023-02-01T14:24:32;7.70;99.90
64855;DHT22;51321;50.428;8.378;2023-02-01T14:27:15;7.80;99.90
64855;DHT22;51321;50.428;8.378;2023-02-01T14:30:01;7.70;99.90
64855;DHT22;51321;50.428;8.378;2023-02-01T14:32:43;7.70;99.90
64855;DHT22;51321;50.428;8.378;2023-02-01T14:35:28;7.60;99.90
64855;DHT22;51321;50.428;8.378;2023-02-01T14:38:08;7.60;99.90
64855;DHT22;51321;50.428;8.378;2023-02-01T14:40:50;7.60;99.90
64855;DHT22;51321;50.428;8.378;2023-02-01T14:43:50;7.40;99.90
64855;DHT22;51321;50.428;8.378;2023-02-01T14:47:07;7.30;99.90
64855;DHT22;51321;50.428;8.378;2023-02-01T14:49:54;7.20;99.90
64855;DHT22;51321;50.428;8.378;2023-02-01T14:52:36;7.20;99.90
64855;DHT22;51321;50.428;8.378;2023-02-01T14:55:35;7.20;99.90
64855;DHT22;51321;50.428;8.378;2023-02-01T14:58:25;7.10;99.90
64855;DHT22;51321;50.428;8.378;2023-02-01T15:01:18;7.20;99.90
64855;DHT22;51321;50.428;8.378;2023-02-01T15:04:08;7.10;99.90
64855;DHT22;51321;50.428;8.378;2023-02-01T15:06:52;7.00;99.90
64855;DHT22;51321;50.428;8.378;2023-02-01T15:09:36;7.00;99.90
64855;DHT22;51321;50.428;8.378;2023-02-01T15:12:23;6.80;99.90
64855;DHT22;51321;50.428;8.378;2023-02-01T15:15:13;6.70;99.90
64855;DHT22;51321;50.428;8.378;2023-02-01T15:17:55;6.70;99.90
64855;DHT22;51321;50.428;8.378;2023-02-01T15:20:37;6.60;99.90
64855;DHT22;51321;50.428;8.378;2023-02-01T15:23:18;6.50;99.90
64855;DHT22;51321;50.428;8.378;2023-02-01T15:25:59;6.60;99.90
64855;DHT22;51321;50.428;8.378;2023-02-01T15:28:40;6.50;99.90
64855;DHT22;51321;50.428;8.378;2023-02-01T15:31:32;6.40;99.90
64855;DHT22;51321;50.428;8.378;2023-02-01T15:34:14;6.40;99.90
64855;DHT22;51321;50.428;8.378;2023-02-01T15:37:04;6.30;99.90
64855;DHT22;51321;50.428;8.378;2023-02-01T15:40:20;6.40;99.90
64855;DHT22;51321;50.428;8.378;2023-02-01T15:43:01;6.40;99.90
64855;DHT22;51321;50.428;8.378;2023-02-01T15:45:42;6.30;99.90
64855;DHT22;51321;50.428;8.378;2023-02-01T15:48:25;6.30;99.90
64855;DHT22;51321;50.428;8.378;2023-02-01T15:51:12;6.30;99.90
64855;DHT22;51321;50.428;8.378;2023-02-01T15:53:56;6.30;99.90
64855;DHT22;51321;50.428;8.378;2023-02-01T15:56:40;6.30;99.90
64855;DHT22;51321;50.428;8.378;2023-02-01T15:59:22;6.30;99.90
64855;DHT22;51321;50.428;8.378;2023-02-01T16:02:04;6.20;99.90
64855;DHT22;51321;50.428;8.378;2023-02-01T16:04:47;6.20;99.90
64855;DHT22;51321;50.428;8.378;2023-02-01T16:07:31;6.30;99.90
64855;DHT22;51321;50.428;8.378;2023-02-01T16:10:25;6.20;99.90
64855;DHT22;51321;50.428;8.378;2023-02-01T16:13:06;6.30;99.90
64855;DHT22;51321;50.428;8.378;2023-02-01T16:15:47;6.30;99.90
64855;DHT22;51321;50.428;8.378;2023-02-01T16:18:28;6.40;99.90
64855;DHT22;51321;50.428;8.378;2023-02-01T16:21:08;6.40;99.90
64855;DHT22;51321;50.428;8.378;2023-02-01T16:23:50;6.40;99.90
64855;DHT22;51321;50.428;8.378;2023-02-01T16:26:33;6.40;99.90
64855;DHT22;51321;50.428;8.378;2023-02-01T16:29:15;6.40;99.90
64855;DHT22;51321;50.428;8.378;2023-02-01T16:31:56;6.40;99.90
64855;DHT22;51321;50.428;8.378;2023-02-01T16:34:37;6.50;99.90
64855;DHT22;51321;50.428;8.378;2023-02-01T16:37:21;6.50;99.90
64855;DHT22;51321;50.428;8.378;2023-02-01T16:40:02;6.50;99.90
64855;DHT22;51321;50.428;8.378;2023-02-01T16:42:46;6.50;99.90
64855;DHT22;51321;50.428;8.378;2023-02-01T16:45:30;6.50;99.90
64855;DHT22;51321;50.428;8.378;2023-02-01T16:48:18;6.50;99.90
64855;DHT22;51321;50.428;8.378;2023-02-01T16:51:02;6.50;99.90
64855;DHT22;51321;50.428;8.378;2023-02-01T16:53:44;6.50;99.90
64855;DHT22;51321;50.428;8.378;2023-02-01T16:56:30;6.50;99.90
64855;DHT22;51321;50.428;8.378;2023-02-01T16:59:13;6.60;99.90
64855;DHT22;51321;50.428;8.378;2023-02-01T17:01:54;6.60;99.90
64855;DHT22;51321;50.428;8.378;2023-02-01T17:04:34;6.60;99.90
64855;DHT22;51321;50.428;8.378;2023-02-01T17:07:17;6.60;99.90
64855;DHT22;51321;50.428;8.378;2023-02-01T17:09:58;6.60;99.90
64855;DHT22;51321;50.428;8.378;2023-02-01T17:12:40;6.60;99.90
64855;DHT22;51321;50.428;8.378;2023-02-01T17:15:22;6.50;99.90
64855;DHT22;51321;50.428;8.378;2023-02-01T17:18:03;6.50;99.90
64855;DHT22;51321;50.428;8.378;2023-02-01T17:20:44;6.40;99.90
64855;DHT22;51321;50.428;8.378;2023-02-01T17:23:27;6.40;99.90
64855;DHT22;51321;50.428;8.378;2023-02-01T17:26:09;6.30;99.90
64855;DHT22;51321;50.428;8.378;2023-02-01T17:28:49;6.30;99.90
64855;DHT22;51321;50.428;8.378;2023-02-01T17:31:32;6.20;99.90
64855;DHT22;51321;50.428;8.378;2023-02-01T17:34:15;6.20;99.90
64855;DHT22;51321;50.428;8.378;2023-02-01T17:36:57;6.20;99.90
64855;DHT22;51321;50.428;8.378;2023-02-01T17:39:38;6.10;99.90
64855;DHT22;51321;50.428;8.378;2023-02-01T17:42:34;6.20;99.90
64855;DHT22;51321;50.428;8.378;2023-02-01T17:45:33;6.20;99.90
64855;DHT22;51321;50.428;8.378;2023-02-01T17:48:17;6.10;99.90
64855;DHT22;51321;50.428;8.378;2023-02-01T17:51:00;6.10;99.90
64855;DHT22;51321;50.428;8.378;2023-02-01T17:53:41;6.00;99.90